Kemmerer, WY

4:16 PM MDT on September 20, 2017 (GMT -0600)
Kemmerer Municipal

Weather History for KEMM - February, 2014

Change the Weather History Date:

Saturday, February 15, 2014

  Actual Average Record
Temperature  
Mean Temperature 36 °F -  
Max Temperature 41 °F 31 °F 45 °F (1955)
Min Temperature 32 °F 7 °F -15 °F (1964)
Degree Days  
Heating Degree Days 28    
Moisture  
Dew Point 30 °F    
Average Humidity 77    
Maximum Humidity 100    
Minimum Humidity 49    
Precipitation  
Precipitation 0.00 in - - ()
Sea Level Pressure  
Sea Level Pressure 30.00 in    
Wind  
Wind Speed 14 mph (WSW)    
Max Wind Speed 28 mph    
Max Gust Speed 34 mph    
Visibility 10 miles    
Events Rain    
Averages and records for this station are not official NWS values.
T = Trace of Precipitation, MM = Missing Value Source: NWS Daily Summary

Daily Weather History Graph

Daily Weather History Graph

Search for Another Location

Airport or City:

Trip Planner

Search our weather history database for the weather conditions in past years. The results will help you decide how hot, cold, wet, or windy it might be!

Date:

Astronomy

Feb. 15, 2014 Rise Set
Actual Time 7:17 AM MST 5:55 PM MST
Civil Twilight 6:49 AM MST 6:24 PM MST
Nautical Twilight 6:16 AM MST 6:56 PM MST
Astronomical Twilight 5:44 AM MST 7:29 PM MST
Moon 7:00 PM MST (2/15) 7:17 AM MST (2/15)
Length of Visible Light 11h 34m
Length of Day
10h 37m
Waxing Gibbous, 99% of the Moon is Illuminated
Feb 15
Waxing Gibbous
Feb 22
Last Quarter
Mar 1
New
Mar 8
First Quarter
Mar 16
Full

Hourly Weather History & Observations

Time (MST) Temp. Windchill Dew Point Humidity Pressure Visibility Wind Dir Wind Speed Gust Speed Precip Events Conditions
12:15 AM 37.4 °F 28.2 °F 32.0 °F 81% 29.94 in 10.0 mi West 16.1 mph 21.9 mph N/A   Overcast
12:35 AM 37.4 °F 28.5 °F 32.0 °F 81% 29.94 in 10.0 mi West 15.0 mph - N/A   Overcast
12:55 AM 37.4 °F 28.5 °F 32.0 °F 81% 29.94 in 10.0 mi West 15.0 mph 21.9 mph N/A   Overcast
1:15 AM 37.4 °F 27.5 °F 32.0 °F 81% 29.94 in 10.0 mi West 18.4 mph 29.9 mph N/A   Overcast
1:35 AM 37.4 °F 25.9 °F 32.0 °F 81% 29.93 in 10.0 mi West 25.3 mph 32.2 mph N/A   Light Drizzle
1:55 AM 37.4 °F 26.9 °F 32.0 °F 81% 29.93 in 10.0 mi West 20.7 mph 31.1 mph N/A Rain Light Rain
2:15 AM 37.4 °F 25.9 °F 32.0 °F 81% 29.95 in 10.0 mi West 25.3 mph 33.4 mph N/A   Light Drizzle
2:30 AM 37.4 °F 25.4 °F 32.0 °F 81% 29.94 in 10.0 mi West 27.6 mph 34.5 mph N/A   Light Drizzle
2:55 AM 37.4 °F 26.6 °F 32.0 °F 81% 29.94 in 10.0 mi West 21.9 mph 28.8 mph N/A   Overcast
3:15 AM 35.6 °F 26.6 °F 32.0 °F 87% 29.94 in 10.0 mi WSW 13.8 mph - N/A Rain Rain
3:35 AM 35.6 °F 26.6 °F 32.0 °F 87% 29.94 in 10.0 mi West 13.8 mph - N/A   Light Drizzle
3:50 AM 35.6 °F 25.9 °F 32.0 °F 87% 29.94 in 10.0 mi West 16.1 mph - N/A   Overcast
4:15 AM 35.6 °F 26.2 °F 32.0 °F 87% 29.96 in 10.0 mi West 15.0 mph - N/A Rain Light Rain
4:35 AM 35.6 °F 26.6 °F 32.0 °F 87% 29.96 in 10.0 mi West 13.8 mph - N/A Rain Light Rain
4:55 AM 35.6 °F 27.1 °F 32.0 °F 87% 29.96 in 10.0 mi West 12.7 mph - N/A   Overcast
5:15 AM 33.8 °F 25.3 °F 33.8 °F 100% 29.96 in 10.0 mi West 11.5 mph - N/A   Overcast
5:40 AM 33.8 °F 25.8 °F 32.0 °F 93% 29.97 in 10.0 mi West 10.4 mph - N/A   Overcast
5:55 AM 33.8 °F 26.4 °F 32.0 °F 93% 29.98 in 10.0 mi West 9.2 mph - N/A   Overcast
6:15 AM 33.8 °F 24.8 °F 33.8 °F 100% 29.99 in 10.0 mi West 12.7 mph - N/A   Light Drizzle
6:35 AM 33.8 °F 24.3 °F 32.0 °F 93% 30.00 in 10.0 mi WNW 13.8 mph - N/A   Overcast
6:55 AM 33.8 °F 24.3 °F 32.0 °F 93% 30.01 in 10.0 mi WNW 13.8 mph - N/A   Overcast
7:15 AM 33.8 °F 26.4 °F 32.0 °F 93% 30.01 in 10.0 mi WNW 9.2 mph - N/A   Overcast
7:40 AM 33.8 °F 24.8 °F 32.0 °F 93% 30.02 in 10.0 mi West 12.7 mph - N/A   Overcast
7:55 AM 33.8 °F 26.4 °F 32.0 °F 93% 30.02 in 10.0 mi West 9.2 mph - N/A   Overcast
8:10 AM 33.8 °F 25.8 °F 32.0 °F 93% 30.04 in 10.0 mi West 10.4 mph - N/A   Overcast
8:35 AM 32.0 °F 22.5 °F 32.0 °F 100% 30.04 in 10.0 mi WSW 12.7 mph - N/A   Overcast
8:55 AM 33.8 °F 25.8 °F 32.0 °F 93% 30.06 in 10.0 mi West 10.4 mph - N/A   Overcast
9:20 AM 33.8 °F 25.3 °F 32.0 °F 93% 30.06 in 10.0 mi WSW 11.5 mph - N/A   Overcast
9:35 AM 33.8 °F 25.3 °F 32.0 °F 93% 30.06 in 10.0 mi WSW 11.5 mph - N/A   Overcast
9:55 AM 33.8 °F 24.8 °F 32.0 °F 93% 30.06 in 10.0 mi WSW 12.7 mph - N/A   Overcast
10:15 AM 33.8 °F 25.8 °F 32.0 °F 93% 30.07 in 10.0 mi West 10.4 mph - N/A   Overcast
10:35 AM 35.6 °F 27.1 °F 32.0 °F 87% 30.08 in 10.0 mi West 12.7 mph - N/A   Overcast
10:55 AM 35.6 °F 28.0 °F 33.8 °F 93% 30.08 in 10.0 mi WSW 10.4 mph - N/A   Overcast
11:15 AM 35.6 °F 28.0 °F 33.8 °F 93% 30.08 in 10.0 mi WSW 10.4 mph - N/A   Overcast
11:35 AM 37.4 °F 29.3 °F 33.8 °F 87% 30.07 in 10.0 mi West 12.7 mph - N/A   Overcast
11:55 AM 37.4 °F 29.3 °F 32.0 °F 81% 30.08 in 10.0 mi WSW 12.7 mph - N/A   Overcast
12:15 PM 37.4 °F 29.8 °F 32.0 °F 81% 30.07 in 10.0 mi WSW 11.5 mph - N/A   Overcast
12:35 PM 37.4 °F 29.8 °F 32.0 °F 81% 30.06 in 10.0 mi WSW 11.5 mph - N/A   Mostly Cloudy
12:55 PM 37.4 °F 30.8 °F 32.0 °F 81% 30.05 in 10.0 mi West 9.2 mph - N/A   Overcast
1:15 PM 39.2 °F 33.0 °F 32.0 °F 75% 30.05 in 10.0 mi West 9.2 mph - N/A   Overcast
1:35 PM 41.0 °F 34.3 °F 32.0 °F 70% 30.04 in 10.0 mi West 11.5 mph - N/A   Scattered Clouds
1:55 PM 41.0 °F 34.3 °F 30.2 °F 65% 30.03 in 10.0 mi West 11.5 mph - N/A   Clear
2:15 PM 41.0 °F 34.7 °F 32.0 °F 70% 30.03 in 10.0 mi West 10.4 mph - N/A   Clear
2:35 PM 41.0 °F 34.7 °F 30.2 °F 65% 30.02 in 10.0 mi West 10.4 mph - N/A   Clear
2:55 PM 41.0 °F 33.5 °F 30.2 °F 65% 30.02 in 10.0 mi WSW 13.8 mph - N/A   Clear
3:15 PM 41.0 °F 33.1 °F 28.4 °F 61% 30.02 in 10.0 mi West 15.0 mph 20.7 mph N/A   Clear
3:35 PM 41.0 °F 33.1 °F 28.4 °F 61% 30.02 in 10.0 mi West 15.0 mph - N/A   Clear
3:55 PM 41.0 °F 32.8 °F 28.4 °F 61% 30.00 in 10.0 mi West 16.1 mph - N/A   Clear
4:15 PM 41.0 °F 32.5 °F 28.4 °F 61% 30.01 in 10.0 mi WSW 17.3 mph 23.0 mph N/A   Clear
4:35 PM 39.2 °F 30.5 °F 28.4 °F 65% 30.01 in 10.0 mi West 16.1 mph - N/A   Clear
4:55 PM 39.2 °F 31.2 °F 28.4 °F 65% 30.01 in 10.0 mi WSW 13.8 mph - N/A   Clear
5:15 PM 37.4 °F 29.3 °F 28.4 °F 70% 30.01 in 10.0 mi West 12.7 mph - N/A   Clear
5:35 PM 35.6 °F 29.9 °F 28.4 °F 75% 30.01 in 10.0 mi WSW 6.9 mph - N/A   Clear
5:55 PM 35.6 °F 28.6 °F 28.4 °F 75% 30.02 in 10.0 mi SW 9.2 mph - N/A   Clear
6:15 PM 37.4 °F 31.4 °F 28.4 °F 70% 30.01 in 10.0 mi WSW 8.1 mph - N/A   Clear
6:35 PM 37.4 °F 31.4 °F 28.4 °F 70% 30.02 in 10.0 mi WSW 8.1 mph - N/A   Clear
6:55 PM 37.4 °F 32.1 °F 28.4 °F 70% 30.02 in 10.0 mi WSW 6.9 mph - N/A   Clear
7:15 PM 37.4 °F 32.8 °F 26.6 °F 65% 30.02 in 10.0 mi SW 5.8 mph - N/A   Clear
7:35 PM 39.2 °F 34.2 °F 24.8 °F 56% 30.02 in 10.0 mi WSW 6.9 mph - N/A   Clear
7:55 PM 41.0 °F 35.2 °F 23.0 °F 49% 30.02 in 10.0 mi WSW 9.2 mph - N/A   Clear
8:15 PM 39.2 °F 35.9 °F 23.0 °F 52% 30.02 in 10.0 mi WSW 4.6 mph - N/A   Clear
8:35 PM 41.0 °F 36.4 °F 23.0 °F 49% 30.01 in 10.0 mi WSW 6.9 mph - N/A   Clear
8:55 PM 37.4 °F 32.1 °F 23.0 °F 56% 30.01 in 10.0 mi WSW 6.9 mph - N/A   Clear
9:15 PM 37.4 °F 33.8 °F 24.8 °F 60% 30.00 in 10.0 mi SW 4.6 mph - N/A   Clear
9:35 PM 39.2 °F 35.0 °F 24.8 °F 56% 29.99 in 10.0 mi WSW 5.8 mph - N/A   Scattered Clouds
9:55 PM 39.2 °F 34.2 °F 23.0 °F 52% 29.99 in 10.0 mi WSW 6.9 mph - N/A   Scattered Clouds
10:15 PM 37.4 °F 32.1 °F 23.0 °F 56% 29.98 in 10.0 mi WSW 6.9 mph - N/A   Clear
10:30 PM 37.4 °F 32.1 °F 23.0 °F 56% 29.97 in 10.0 mi West 6.9 mph - N/A   Clear
10:55 PM 37.4 °F 33.8 °F 24.8 °F 60% 29.96 in 10.0 mi West 4.6 mph - N/A   Clear
11:15 PM 37.4 °F 32.1 °F 24.8 °F 60% 29.96 in 10.0 mi SSE 6.9 mph - N/A   Clear
11:35 PM 35.6 °F - 26.6 °F 70% 29.94 in 10.0 mi Calm Calm - N/A   Clear
11:55 PM 37.4 °F 34.9 °F 24.8 °F 60% 29.94 in 10.0 mi WSW 3.5 mph - N/A   Clear